Time;durP1;ratioP1;P1;durP2;ratioP2;P2;SDS_P1;SDS_P2;PMS_P1;PMS_P2;Temp;Humidity;BMP_temperature;BMP_pressure;BME280_temperature;BME280_humidity;BME280_pressure;Samples;Min_cycle;Max_cycle;Signal;HPM_P1;HPM_P2
2023/01/05 00:01:08;;;;;;;21.45;5.32;;;;;;;10.21;100.00;101655.09;5093868;28;20032;-37
2023/01/05 00:03:34;;;;;;;20.17;5.22;;;;;;;10.11;100.00;101639.28;5094399;28;20038;-37
2023/01/05 00:06:04;;;;;;;22.98;5.45;;;;;;;10.15;100.00;101634.28;5093830;28;20039;-37
2023/01/05 00:08:30;;;;;;;21.98;5.22;;;;;;;10.21;100.00;101647.81;5093523;28;20024;-42
2023/01/05 00:24:38;;;;;;;23.35;5.45;;;;;;;10.12;100.00;101645.53;5093686;28;20039;-37
2023/01/05 00:27:03;;;;;;;21.58;5.35;;;;;;;10.09;100.00;101654.03;5093585;28;20460;-37
2023/01/05 00:29:29;;;;;;;25.27;6.00;;;;;;;10.05;100.00;101648.22;5093229;28;20028;-37
2023/01/05 00:31:54;;;;;;;29.20;7.37;;;;;;;10.02;100.00;101648.66;5093298;28;20081;-37
2023/01/05 00:34:19;;;;;;;24.40;5.70;;;;;;;9.99;100.00;101647.16;5094780;28;20040;-37
2023/01/05 00:36:45;;;;;;;24.20;5.17;;;;;;;9.96;100.00;101647.59;5093463;28;20028;-37
2023/01/05 00:39:10;;;;;;;21.03;4.83;;;;;;;9.93;100.00;101642.59;5093556;28;20020;-37
2023/01/05 00:41:35;;;;;;;22.33;4.93;;;;;;;9.93;100.00;101658.81;5093212;28;20021;-37
2023/01/05 00:44:00;;;;;;;27.70;5.57;;;;;;;9.94;100.00;101662.34;5093651;28;20111;-37
2023/01/05 00:46:26;;;;;;;22.33;5.87;;;;;;;9.90;100.00;101670.03;5093724;28;20028;-37
2023/01/05 00:48:51;;;;;;;24.30;5.70;;;;;;;9.88;100.00;101666.72;5093470;28;20064;-37
2023/01/05 00:51:16;;;;;;;22.87;5.87;;;;;;;9.87;100.00;101669.63;5093297;28;20056;-37
2023/01/05 00:53:42;;;;;;;23.53;5.83;;;;;;;9.76;100.00;101661.09;5093120;28;20028;-37
2023/01/05 00:56:07;;;;;;;24.63;4.83;;;;;;;9.78;100.00;101661.72;5093376;28;20358;-37
2023/01/05 00:58:32;;;;;;;27.83;6.03;;;;;;;9.75;100.00;101663.97;5093096;28;20396;-37
2023/01/05 01:00:58;;;;;;;20.47;5.33;;;;;;;9.76;100.00;101668.34;5093571;28;20028;-37
2023/01/05 01:03:23;;;;;;;17.70;4.60;;;;;;;9.73;100.00;101664.19;5093338;28;20051;-37
2023/01/05 01:05:58;;;;;;;29.60;5.63;;;;;;;9.63;100.00;101660.25;5093257;28;20032;-37
2023/01/05 01:08:24;;;;;;;26.90;6.55;;;;;;;9.64;100.00;101670.00;5093331;28;20024;-37
2023/01/05 01:10:49;;;;;;;23.27;5.57;;;;;;;9.65;100.00;101677.88;5092738;28;20051;-37
2023/01/05 01:13:14;;;;;;;25.47;5.77;;;;;;;9.63;100.00;101668.34;5093146;28;20064;-37
2023/01/05 01:15:40;;;;;;;23.37;5.17;;;;;;;9.59;100.00;101673.31;5093178;28;20024;-37
2023/01/05 01:18:05;;;;;;;19.43;4.43;;;;;;;9.58;100.00;101666.25;5093437;28;20020;-37
2023/01/05 01:20:30;;;;;;;24.30;6.40;;;;;;;9.53;100.00;101664.16;5093633;28;20032;-37
2023/01/05 01:22:59;;;;;;;20.03;5.07;;;;;;;9.51;100.00;101666.22;5093745;28;20043;-37
2023/01/05 01:25:24;;;;;;;21.77;5.38;;;;;;;9.52;100.00;101677.88;5092677;28;20032;-37
2023/01/05 01:27:49;;;;;;;22.73;5.23;;;;;;;9.50;100.00;101685.34;5094056;28;20020;-37
2023/01/05 01:30:15;;;;;;;22.83;5.13;;;;;;;9.41;100.00;101671.19;5096645;28;20273;-37
2023/01/05 01:32:40;;;;;;;23.67;5.20;;;;;;;9.46;100.00;101689.47;5096480;28;20028;-37
2023/01/05 01:35:06;;;;;;;21.17;4.83;;;;;;;9.36;100.00;101684.44;5096903;28;20047;-37
2023/01/05 01:37:31;;;;;;;22.73;6.82;;;;;;;9.41;100.00;101695.47;5096493;28;20056;-37
2023/01/05 01:39:56;;;;;;;22.17;6.00;;;;;;;9.39;100.00;101694.84;5097047;28;20053;-37
2023/01/05 01:42:22;;;;;;;23.70;6.13;;;;;;;9.38;100.00;101697.75;5096443;28;20024;-37
2023/01/05 01:44:52;;;;;;;20.70;4.77;;;;;;;9.38;100.00;101714.78;5096474;28;20085;-37
2023/01/05 01:47:38;;;;;;;24.70;5.43;;;;;;;9.37;100.00;101710.44;5095942;28;20476;-37
2023/01/05 01:50:15;;;;;;;21.05;5.68;;;;;;;9.38;100.00;101717.50;5096804;28;20032;-37
2023/01/05 01:52:43;;;;;;;21.17;5.50;;;;;;;9.38;100.00;101716.66;5096531;28;20103;-37
2023/01/05 01:55:09;;;;;;;27.33;6.10;;;;;;;9.36;100.00;101722.25;5095901;28;20480;-37
2023/01/05 01:57:35;;;;;;;;;;;;;;;9.41;100.00;101710.84;5097108;28;20024;-37
2023/01/05 02:00:04;;;;;;;25.23;5.78;;;;;;;9.34;100.00;101712.69;5096023;28;19954;-38
2023/01/05 02:02:29;;;;;;;19.77;4.95;;;;;;;9.39;100.00;101721.03;5095891;28;20032;-38
2023/01/05 02:05:01;;;;;;;30.67;7.10;;;;;;;9.41;100.00;101722.47;5077689;28;20039;-38
2023/01/05 02:07:31;;;;;;;22.05;5.03;;;;;;;9.42;100.00;101716.06;5096175;28;20108;-38
2023/01/05 02:09:56;;;;;;;22.52;5.28;;;;;;;9.43;100.00;101722.28;5095738;28;20024;-38
2023/01/05 02:12:24;;;;;;;25.27;5.57;;;;;;;9.45;100.00;101725.59;5095852;28;20036;-38
2023/01/05 02:15:20;;;;;;;28.55;6.65;;;;;;;9.45;100.00;101721.03;5095813;28;20024;-38
2023/01/05 02:17:55;;;;;;;24.85;6.13;;;;;;;9.47;100.00;101728.94;5096556;28;20024;-38
2023/01/05 02:20:50;;;;;;;24.30;5.30;;;;;;;9.49;100.00;101730.41;5095974;28;20384;-38
2023/01/05 02:23:43;;;;;;;25.23;5.63;;;;;;;9.49;100.00;101727.69;5096486;28;20024;-38
2023/01/05 02:26:46;;;;;;;26.23;6.20;;;;;;;9.50;100.00;101723.97;5095916;28;20470;-38
2023/01/05 02:29:38;;;;;;;28.33;6.25;;;;;;;9.56;100.00;101727.72;5095492;28;20024;-38
2023/01/05 02:32:41;;;;;;;21.70;5.05;;;;;;;9.56;100.00;101727.72;5095506;28;20104;-38
2023/01/05 02:35:22;;;;;;;24.30;6.55;;;;;;;9.51;100.00;101709.41;5090610;28;20547;-38
2023/01/05 02:38:23;;;;;;;24.42;5.45;;;;;;;9.59;100.00;101727.31;5095954;28;20024;-38
2023/01/05 02:40:54;;;;;;;27.80;5.15;;;;;;;9.59;100.00;101718.38;5094279;28;20028;-38
2023/01/05 02:43:20;;;;;;;30.70;5.97;;;;;;;9.59;100.00;101732.72;5095215;28;20035;-37
2023/01/05 02:45:46;;;;;;;24.33;5.70;;;;;;;9.56;100.00;101727.72;5095475;28;20028;-38
2023/01/05 02:48:11;;;;;;;;;;;;;;;9.66;100.00;101719.22;5095374;28;20031;-38
2023/01/05 02:50:52;;;;;;;27.23;6.47;;;;;;;9.63;100.00;101719.66;5095558;28;19912;-38
2023/01/05 02:53:25;;;;;;;25.67;5.72;;;;;;;9.68;100.00;101730.66;5095542;28;20067;-38
2023/01/05 02:55:56;;;;;;;30.70;6.95;;;;;;;9.69;100.00;101737.72;5095521;28;20032;-37
2023/01/05 02:58:36;;;;;;;23.83;5.85;;;;;;;9.72;100.00;101729.25;5094705;28;20480;-37
2023/01/05 03:01:16;;;;;;;23.45;5.00;;;;;;;9.66;100.00;101727.31;5094968;28;20032;-37
2023/01/05 03:03:51;;;;;;;23.63;5.18;;;;;;;9.67;100.00;101719.03;5095419;28;20432;-37
2023/01/05 03:06:33;;;;;;;18.35;5.60;;;;;;;9.75;100.00;101736.91;5077282;28;20055;-36
2023/01/05 03:09:02;;;;;;;24.48;5.55;;;;;;;9.73;100.00;101734.44;5095347;28;20029;-36
2023/01/05 03:14:31;;;;;;;27.88;5.55;;;;;;;9.82;100.00;101742.34;5094453;28;20125;-37
2023/01/05 03:16:59;;;;;;;22.55;5.53;;;;;;;9.82;100.00;101745.06;5094848;28;20028;-37
2023/01/05 03:19:40;;;;;;;25.73;6.30;;;;;;;9.78;100.00;101742.75;5094541;28;20035;-37
2023/01/05 03:36:39;;;;;;;28.08;5.70;;;;;;;9.90;100.00;101756.47;5094288;28;20560;-37
2023/01/05 03:39:07;;;;;;;23.75;5.45;;;;;;;9.91;100.00;101757.34;5094256;28;20035;-37
2023/01/05 03:41:35;;;;;;;23.65;6.00;;;;;;;9.90;100.00;101752.94;5075945;28;20107;-37
2023/01/05 03:44:00;;;;;;;22.80;5.45;;;;;;;9.84;100.00;101743.78;5093772;28;20024;-37
2023/01/05 03:46:26;;;;;;;24.77;5.70;;;;;;;9.88;100.00;101742.34;5094671;28;20103;-37
2023/01/05 03:48:52;;;;;;;24.05;5.10;;;;;;;9.85;100.00;101737.34;5094076;28;20035;-37
2023/01/05 03:51:17;;;;;;;26.38;6.18;;;;;;;9.82;100.00;101735.06;5094152;28;20024;-37
2023/01/05 03:53:43;;;;;;;18.83;5.30;;;;;;;9.94;100.00;101752.34;5094584;28;20040;-38
2023/01/05 03:56:09;;;;;;;20.85;5.70;;;;;;;9.90;100.00;101744.84;5093907;28;20035;-37
2023/01/05 03:58:34;;;;;;;29.40;5.75;;;;;;;9.94;100.00;101752.34;5094253;28;20053;-37
2023/01/05 04:00:59;;;;;;;25.77;6.10;;;;;;;9.93;100.00;101749.84;5093873;28;20028;-37
2023/01/05 04:03:25;;;;;;;19.90;5.30;;;;;;;9.90;100.00;101750.25;5094159;28;20107;-37
2023/01/05 04:05:50;;;;;;;24.70;5.67;;;;;;;9.96;100.00;101754.84;5093825;28;20438;-37
2023/01/05 04:08:15;;;;;;;22.33;5.07;;;;;;;9.96;100.00;101755.69;5094372;28;20107;-37
2023/01/05 04:10:41;;;;;;;23.80;5.03;;;;;;;9.92;100.00;101749.03;5093672;28;20456;-37
2023/01/05 04:13:06;;;;;;;24.58;6.93;;;;;;;9.95;100.00;101739.66;5094049;28;20028;-37
2023/01/05 04:15:31;;;;;;;20.47;4.93;;;;;;;9.95;100.00;101753.16;5093336;28;20024;-37
2023/01/05 04:17:57;;;;;;;25.27;5.67;;;;;;;9.92;100.00;101746.31;5094263;28;20040;-37
2023/01/05 04:20:22;;;;;;;26.83;5.73;;;;;;;9.97;100.00;101757.34;5093316;28;20032;-37
2023/01/05 04:22:48;;;;;;;27.20;6.50;;;;;;;9.94;100.00;101736.13;5093457;28;20024;-38
2023/01/05 04:25:13;;;;;;;29.23;6.53;;;;;;;9.97;100.00;101749.25;5093682;28;20050;-37
2023/01/05 04:27:38;;;;;;;24.70;5.40;;;;;;;9.96;100.00;101755.69;5093723;28;20483;-37
2023/01/05 04:30:04;;;;;;;22.17;5.23;;;;;;;9.96;100.00;101752.16;5094104;28;20047;-37
2023/01/05 04:32:29;;;;;;;32.10;5.75;;;;;;;9.91;100.00;101747.38;5093815;28;20364;-37
2023/01/05 04:34:55;;;;;;;25.20;5.93;;;;;;;9.97;100.00;101760.03;5094783;28;20076;-37
2023/01/05 04:37:20;;;;;;;23.83;6.33;;;;;;;9.96;100.00;101761.09;5094085;28;20067;-37
2023/01/05 04:39:45;;;;;;;23.30;5.72;;;;;;;9.96;100.00;101760.25;5093476;28;20107;-37
2023/01/05 04:42:11;;;;;;;25.13;5.87;;;;;;;9.96;100.00;101754.84;5093152;28;20034;-37
2023/01/05 04:44:36;;;;;;;27.27;6.63;;;;;;;9.90;100.00;101753.78;5093629;28;20032;-37
2023/01/05 04:47:01;;;;;;;26.50;6.00;;;;;;;9.91;100.00;101744.66;5094219;28;20055;-37
2023/01/05 04:49:27;;;;;;;31.90;6.47;;;;;;;9.95;100.00;101745.88;5093366;28;20357;-37
2023/01/05 04:51:52;;;;;;;24.27;6.43;;;;;;;9.95;100.00;101751.28;5093129;28;20388;-37
2023/01/05 04:54:17;;;;;;;22.10;5.33;;;;;;;9.94;100.00;101752.34;5093642;28;20028;-37
2023/01/05 04:56:43;;;;;;;25.27;6.63;;;;;;;9.93;100.00;101761.47;5093306;28;20028;-37
2023/01/05 04:59:08;;;;;;;26.77;6.88;;;;;;;9.94;100.00;101755.03;5093726;28;20028;-37
2023/01/05 05:01:33;;;;;;;28.53;6.50;;;;;;;9.88;100.00;101747.75;5092957;28;20039;-37
2023/01/05 05:03:59;;;;;;;27.07;6.40;;;;;;;9.87;100.00;101756.91;5095884;28;20036;-37
2023/01/05 05:06:24;;;;;;;24.10;5.77;;;;;;;9.95;100.00;101766.69;5097147;28;20107;-37
2023/01/05 05:08:49;;;;;;;28.45;6.32;;;;;;;9.95;100.00;101762.09;5097657;28;20024;-37
2023/01/05 05:11:15;;;;;;;29.57;5.63;;;;;;;9.95;100.00;101769.38;5096962;28;20379;-37
2023/01/05 05:13:40;;;;;;;27.17;5.73;;;;;;;9.94;100.00;101787.47;5096964;28;20456;-37
2023/01/05 05:16:06;;;;;;;28.20;5.90;;;;;;;9.93;100.00;101771.47;5097768;28;20516;-37
2023/01/05 05:18:31;;;;;;;30.77;6.72;;;;;;;9.98;100.00;101793.31;5097199;28;20107;-37
2023/01/05 05:20:57;;;;;;;29.77;6.83;;;;;;;9.97;100.00;101787.06;5097446;28;20028;-37
2023/01/05 05:23:22;;;;;;;29.07;6.27;;;;;;;9.98;100.00;101796.84;5097105;28;20414;-37
2023/01/05 05:25:51;;;;;;;26.23;6.30;;;;;;;9.99;100.00;101789.56;5097294;28;20028;-37
2023/01/05 05:28:17;;;;;;;31.23;7.05;;;;;;;9.98;100.00;101785.19;5096747;28;20468;-37
2023/01/05 05:30:43;;;;;;;;;;;;;;;10.03;100.00;101788.13;5097582;28;20456;-37
2023/01/05 05:33:08;;;;;;;24.58;5.88;;;;;;;10.02;100.00;101786.47;5096333;28;19923;-37
2023/01/05 05:35:33;;;;;;;34.53;7.57;;;;;;;10.03;100.00;101807.84;5096305;28;20403;-38
2023/01/05 05:38:00;;;;;;;29.63;5.50;;;;;;;9.91;100.00;101781.66;5096822;28;20066;-37
2023/01/05 05:40:25;;;;;;;24.85;5.95;;;;;;;9.97;100.00;101789.78;5096420;28;20031;-37
2023/01/05 05:42:51;;;;;;;24.40;6.10;;;;;;;10.04;100.00;101806.00;5097254;28;20472;-37
2023/01/05 05:45:16;;;;;;;25.73;5.28;;;;;;;10.05;100.00;101813.06;5096060;28;20036;-37
2023/01/05 05:47:42;;;;;;;26.13;5.45;;;;;;;10.05;100.00;101805.81;5096865;28;20119;-37
2023/01/05 05:50:08;;;;;;;31.88;6.85;;;;;;;10.05;100.00;101819.31;5097042;28;20360;-37
2023/01/05 05:52:33;;;;;;;27.05;6.97;;;;;;;10.03;100.00;101815.97;5096250;28;20035;-37
2023/01/05 05:54:59;;;;;;;28.80;6.33;;;;;;;10.02;100.00;101818.88;5096224;28;20032;-37
2023/01/05 05:57:24;;;;;;;27.50;6.63;;;;;;;10.03;100.00;101821.38;5095767;28;20483;-37
2023/01/05 05:59:49;;;;;;;28.67;5.70;;;;;;;9.94;100.00;101817.19;5096193;28;20039;-37
2023/01/05 06:02:15;;;;;;;19.73;4.77;;;;;;;10.02;100.00;101833.22;5096375;28;20032;-37
2023/01/05 06:04:40;;;;;;;29.10;7.00;;;;;;;9.97;100.00;101835.69;5096004;28;20020;-37
2023/01/05 06:07:06;;;;;;;28.77;6.53;;;;;;;9.94;100.00;101833.41;5095969;28;20055;-37
2023/01/05 06:09:31;;;;;;;26.87;7.10;;;;;;;10.01;100.00;101844.25;5096711;28;20039;-37
2023/01/05 06:11:56;;;;;;;30.90;7.47;;;;;;;9.93;100.00;101820.94;5095621;28;20028;-37
2023/01/05 06:14:22;;;;;;;21.90;5.33;;;;;;;9.99;100.00;101830.09;5095495;28;20020;-37
2023/01/05 06:16:47;;;;;;;20.33;5.03;;;;;;;9.98;100.00;101839.25;5095509;28;20059;-37
2023/01/05 06:19:12;;;;;;;30.17;6.17;;;;;;;9.90;100.00;101837.53;5096679;28;20036;-37
2023/01/05 06:21:38;;;;;;;25.67;6.40;;;;;;;9.93;100.00;101841.72;5096298;28;20028;-37
2023/01/05 06:24:04;;;;;;;31.42;6.85;;;;;;;9.87;100.00;101859.56;5096501;28;20024;-37
2023/01/05 06:26:29;;;;;;;30.25;6.15;;;;;;;9.83;100.00;101855.59;5096209;28;20369;-37
2023/01/05 06:28:54;;;;;;;29.40;6.87;;;;;;;9.82;100.00;101867.44;5095602;28;20035;-37
2023/01/05 06:31:20;;;;;;;31.40;6.73;;;;;;;9.80;100.00;101858.69;5095422;28;20028;-37
2023/01/05 06:33:45;;;;;;;31.77;5.93;;;;;;;9.73;100.00;101852.44;5095331;28;20462;-37
2023/01/05 06:36:10;;;;;;;33.27;7.47;;;;;;;9.78;100.00;101860.78;5095399;28;20028;-37
2023/01/05 06:38:36;;;;;;;31.00;5.87;;;;;;;9.79;100.00;101873.25;5095159;28;20016;-37
2023/01/05 06:41:01;;;;;;;26.03;6.07;;;;;;;9.71;100.00;101870.69;5095317;28;20321;-37
2023/01/05 06:43:26;;;;;;;29.30;6.33;;;;;;;9.79;100.00;101884.03;5095038;28;20257;-37
2023/01/05 06:45:52;;;;;;;25.30;5.80;;;;;;;9.78;100.00;101888.63;5096000;28;20048;-37
2023/01/05 06:48:17;;;;;;;27.70;6.87;;;;;;;9.81;100.00;101892.81;5095541;28;20028;-37
2023/01/05 06:50:43;;;;;;;31.87;6.83;;;;;;;9.82;100.00;101888.22;5094752;28;20423;-37
2023/01/05 06:53:08;;;;;;;37.80;8.03;;;;;;;9.82;100.00;101893.63;5095191;28;20375;-37
2023/01/05 06:55:33;;;;;;;30.63;5.60;;;;;;;9.80;100.00;101893.81;5095844;28;20024;-37
2023/01/05 06:57:58;;;;;;;32.73;7.00;;;;;;;9.81;100.00;101898.19;5077263;28;20031;-37
2023/01/05 07:00:24;;;;;;;30.73;6.67;;;;;;;9.82;100.00;101897.16;5095764;28;20032;-37
2023/01/05 07:02:49;;;;;;;27.00;6.43;;;;;;;9.80;100.00;101905.44;5095536;28;20024;-37
2023/01/05 07:05:15;;;;;;;28.63;7.10;;;;;;;9.82;100.00;101901.72;5094844;28;20032;-37
2023/01/05 07:07:40;;;;;;;28.88;5.88;;;;;;;9.75;100.00;101888.16;5095558;28;20028;-37
2023/01/05 07:10:06;;;;;;;29.50;5.93;;;;;;;9.69;100.00;101873.59;5094956;28;20526;-37
2023/01/05 07:12:32;;;;;;;30.52;6.63;;;;;;;9.77;100.00;101895.06;5094359;28;20032;-37
2023/01/05 07:14:57;;;;;;;23.97;5.93;;;;;;;9.80;100.00;101912.72;5094629;28;20086;-37
2023/01/05 07:17:22;;;;;;;27.53;6.70;;;;;;;9.79;100.00;101903.78;5094277;28;20036;-37
2023/01/05 07:19:48;;;;;;;25.37;5.83;;;;;;;9.79;100.00;101908.34;5094904;28;20035;-37
2023/01/05 07:22:14;;;;;;;23.90;5.83;;;;;;;9.81;100.00;101911.72;5094219;28;20384;-37
2023/01/05 07:24:39;;;;;;;26.60;5.57;;;;;;;9.80;100.00;101910.00;5094483;28;20027;-37
2023/01/05 07:27:04;;;;;;;31.20;7.37;;;;;;;9.74;100.00;101908.94;5094381;28;20028;-37
2023/01/05 07:29:30;;;;;;;26.57;5.23;;;;;;;9.80;100.00;101926.22;5094900;28;20059;-37
2023/01/05 07:31:55;;;;;;;26.55;6.05;;;;;;;9.80;100.00;101928.94;5094858;28;20028;-37
2023/01/05 07:34:21;;;;;;;29.70;6.37;;;;;;;9.79;100.00;101922.69;5092355;28;20490;-37
2023/01/05 07:36:48;;;;;;;30.48;6.38;;;;;;;9.78;100.00;101923.72;5094524;28;20093;-37
2023/01/05 07:39:14;;;;;;;30.33;7.28;;;;;;;9.79;100.00;101929.97;5095028;28;20028;-37
2023/01/05 07:41:39;;;;;;;40.60;8.70;;;;;;;9.79;100.00;101927.25;5094175;28;20039;-37
2023/01/05 07:44:04;;;;;;;30.57;6.47;;;;;;;9.79;100.00;101927.25;5093890;28;20028;-37
2023/01/05 07:46:30;;;;;;;26.53;5.43;;;;;;;9.77;100.00;101923.94;5094617;28;20468;-37
2023/01/05 07:48:56;;;;;;;30.65;7.80;;;;;;;9.78;100.00;101937.25;5094674;28;20032;-37
2023/01/05 07:51:21;;;;;;;30.02;7.18;;;;;;;9.76;100.00;101933.91;5094127;28;20079;-37
2023/01/05 07:53:47;;;;;;;33.35;8.30;;;;;;;9.77;100.00;101932.88;5093965;28;20017;-37
2023/01/05 07:56:13;;;;;;;23.80;6.68;;;;;;;9.74;100.00;101924.31;5094048;28;20024;-37
2023/01/05 07:58:39;;;;;;;30.42;7.10;;;;;;;9.76;100.00;101935.75;5094004;28;20055;-38
2023/01/05 08:01:07;;;;;;;28.88;5.97;;;;;;;9.74;100.00;101935.13;5094186;28;20020;-38
2023/01/05 08:03:33;;;;;;;28.83;6.20;;;;;;;9.72;100.00;101939.91;5094395;28;20047;-38
2023/01/05 08:06:08;;;;;;;27.50;6.72;;;;;;;9.67;100.00;101934.28;5093869;28;20032;-38
2023/01/05 08:08:34;;;;;;;32.65;6.65;;;;;;;9.73;100.00;101946.97;5093964;28;20024;-38
2023/01/05 08:11:03;;;;;;;27.97;6.30;;;;;;;9.75;100.00;101964.63;5093715;28;20031;-37
2023/01/05 08:16:12;;;;;;;33.85;7.32;;;;;;;9.70;100.00;101950.06;5093773;28;20047;-37
2023/01/05 08:18:37;;;;;;;27.40;7.17;;;;;;;9.76;100.00;101954.66;5093761;28;20017;-37
2023/01/05 08:21:03;;;;;;;28.97;6.23;;;;;;;9.75;100.00;101955.69;5093619;28;20468;-37
2023/01/05 08:23:30;;;;;;;30.27;7.43;;;;;;;9.77;100.00;101973.41;5093616;28;20722;-37
2023/01/05 08:25:56;;;;;;;24.10;5.47;;;;;;;9.76;100.00;101960.06;5093286;28;20113;-38
2023/01/05 08:28:25;;;;;;;30.70;7.97;;;;;;;9.77;100.00;101972.56;5093626;28;20063;-37
2023/01/05 08:30:50;;;;;;;26.02;6.32;;;;;;;9.78;100.00;101969.66;5093066;28;20418;-37
2023/01/05 08:33:15;;;;;;;34.07;7.77;;;;;;;9.77;100.00;101967.16;5093526;28;20024;-37
2023/01/05 08:35:43;;;;;;;30.23;7.07;;;;;;;9.76;100.00;101977.13;5094213;28;20074;-38
2023/01/05 08:38:09;;;;;;;30.70;7.53;;;;;;;9.64;100.00;101962.50;5094798;28;20107;-38
2023/01/05 08:40:38;;;;;;;25.77;6.05;;;;;;;9.77;100.00;101983.38;5098146;28;20055;-38
2023/01/05 08:43:04;;;;;;;29.50;7.43;;;;;;;9.72;100.00;101980.44;5098150;28;20024;-38
2023/01/05 08:45:31;;;;;;;29.83;6.53;;;;;;;9.75;100.00;101983.53;5097531;28;20027;-38
2023/01/05 08:47:56;;;;;;;34.83;7.95;;;;;;;9.78;100.00;101979.63;5097074;28;20495;-38
2023/01/05 08:50:21;;;;;;;33.87;6.83;;;;;;;9.78;100.00;101996.66;5097284;28;20025;-38
2023/01/05 08:52:47;;;;;;;34.45;6.78;;;;;;;9.83;100.00;102006.06;5097709;28;20069;-38
2023/01/05 08:55:12;;;;;;;32.40;6.27;;;;;;;9.83;100.00;102006.88;5097312;28;20024;-38
2023/01/05 08:57:37;;;;;;;27.90;6.63;;;;;;;9.85;100.00;102007.50;5097592;28;20028;-38
2023/01/05 09:00:04;;;;;;;23.00;5.77;;;;;;;9.87;100.00;102010.88;5097276;28;20456;-38
2023/01/05 09:02:30;;;;;;;27.23;5.97;;;;;;;9.82;100.00;102004.38;5097729;28;20422;-38
2023/01/05 09:04:55;;;;;;;28.30;6.03;;;;;;;9.83;100.00;102008.75;5098026;28;20028;-38
2023/01/05 09:07:21;;;;;;;27.03;6.23;;;;;;;9.90;100.00;102013.16;5097148;28;20032;-37
2023/01/05 09:09:46;;;;;;;31.83;6.75;;;;;;;9.92;100.00;102027.31;5097538;28;20024;-37
2023/01/05 09:12:11;;;;;;;35.00;7.30;;;;;;;9.93;100.00;102025.44;5078656;28;20044;-37
2023/01/05 09:14:37;;;;;;;26.10;7.80;;;;;;;9.91;100.00;102020.25;5097018;28;20465;-38
2023/01/05 09:17:02;;;;;;;26.75;5.88;;;;;;;10.00;100.00;102035.28;5096611;28;20020;-38
2023/01/05 09:19:28;;;;;;;30.50;6.77;;;;;;;10.03;100.00;102028.63;5096992;28;20035;-39
2023/01/05 09:21:53;;;;;;;29.83;6.43;;;;;;;9.99;100.00;102021.94;5078034;28;20107;-38
2023/01/05 09:24:19;;;;;;;28.17;6.43;;;;;;;10.06;100.00;102039.88;5097431;28;20107;-38
2023/01/05 09:26:44;;;;;;;26.87;6.47;;;;;;;10.03;100.00;102031.31;5096525;28;20024;-38
2023/01/05 09:29:10;;;;;;;31.27;7.07;;;;;;;10.09;100.00;102041.34;5096730;28;20020;-38
2023/01/05 09:31:36;;;;;;;29.70;6.90;;;;;;;10.11;100.00;102049.25;5096528;28;20035;-38
2023/01/05 09:34:02;;;;;;;32.77;6.57;;;;;;;10.05;100.00;102040.91;5097205;28;20052;-38
2023/01/05 09:36:28;;;;;;;28.52;7.05;;;;;;;10.10;100.00;102056.50;5096693;28;20780;-38
2023/01/05 09:38:55;;;;;;;32.77;8.33;;;;;;;10.12;100.00;102056.34;5096505;28;20028;-38
2023/01/05 09:41:32;;;;;;;31.27;6.28;;;;;;;10.14;100.00;102046.16;5096981;28;20411;-38
2023/01/05 09:44:04;;;;;;;28.00;6.00;;;;;;;10.16;100.00;102063.84;5096235;28;20484;-38
2023/01/05 09:46:34;;;;;;;31.33;7.88;;;;;;;10.15;100.00;102062.19;5096610;28;20047;-38
2023/01/05 09:49:02;;;;;;;27.23;6.13;;;;;;;10.10;100.00;102053.81;5096371;28;20039;-38
2023/01/05 09:51:28;;;;;;;24.02;5.05;;;;;;;10.17;100.00;102064.69;5096167;28;20457;-38
2023/01/05 09:53:54;;;;;;;28.25;6.25;;;;;;;10.16;100.00;102065.72;5096236;28;20504;-38
2023/01/05 09:56:33;;;;;;;29.85;6.95;;;;;;;10.12;100.00;102062.56;5096166;28;20110;-38
2023/01/05 09:59:17;;;;;;;29.55;6.10;;;;;;;10.20;100.00;102077.78;5096621;28;20028;-38
2023/01/05 10:01:46;;;;;;;27.42;6.50;;;;;;;10.18;100.00;102064.47;5079455;28;20035;-38
2023/01/05 10:04:16;;;;;;;28.95;6.38;;;;;;;10.20;100.00;102075.06;5096848;28;20043;-38
2023/01/05 10:06:45;;;;;;;26.02;6.90;;;;;;;10.21;100.00;102082.19;5095687;28;20548;-38
2023/01/05 10:09:22;;;;;;;30.55;6.60;;;;;;;10.20;100.00;102075.94;5096513;28;20020;-38
2023/01/05 10:14:45;;;;;;;30.27;7.45;;;;;;;10.20;100.00;102075.06;5096459;28;19935;-37
2023/01/05 10:17:16;;;;;;;30.85;7.22;;;;;;;10.24;100.00;102088.03;5096001;28;20024;-37
2023/01/05 10:19:43;;;;;;;30.65;6.07;;;;;;;10.26;100.00;102085.16;5096090;28;20032;-38
2023/01/05 10:22:20;;;;;;;;;;;;;;;10.33;100.00;102088.72;5096084;28;20020;-38
2023/01/05 10:24:57;;;;;;;32.28;6.22;;;;;;;10.31;100.00;102093.50;5095938;28;19919;-37
2023/01/05 10:27:28;;;;;;;29.50;6.57;;;;;;;10.33;100.00;102091.41;5096141;28;20055;-37
2023/01/05 10:30:21;;;;;;;30.90;6.85;;;;;;;10.37;100.00;102086.47;5095210;28;20025;-37
2023/01/05 10:32:57;;;;;;;28.52;6.93;;;;;;;10.37;100.00;102092.69;5095827;28;20028;-37
2023/01/05 10:35:56;;;;;;;25.40;6.15;;;;;;;10.41;100.00;102099.38;5095190;28;20044;-37
2023/01/05 10:38:34;;;;;;;30.95;6.63;;;;;;;10.39;100.00;102085.22;5095397;28;20032;-37
2023/01/05 10:41:12;;;;;;;25.88;7.32;;;;;;;10.42;100.00;102094.81;5095629;28;20085;-37
2023/01/05 10:43:54;;;;;;;26.92;6.72;;;;;;;10.43;100.00;102085.66;5095574;28;20031;-37
2023/01/05 10:46:20;;;;;;;30.77;6.82;;;;;;;10.40;100.00;102088.78;5095297;28;20123;-37
2023/01/05 10:48:46;;;;;;;28.08;7.07;;;;;;;10.42;100.00;102094.81;5095771;28;20047;-37
2023/01/05 10:51:11;;;;;;;34.95;8.30;;;;;;;10.42;100.00;102098.34;5094778;28;20408;-37
2023/01/05 10:53:39;;;;;;;28.53;7.77;;;;;;;10.41;100.00;102098.56;5095644;28;20039;-37
2023/01/05 10:56:23;;;;;;;31.80;6.97;;;;;;;10.39;100.00;102101.44;5094733;28;20472;-37
2023/01/05 10:59:09;;;;;;;27.98;5.80;;;;;;;10.39;100.00;102098.72;5095063;28;20028;-38
2023/01/05 11:01:36;;;;;;;29.60;6.80;;;;;;;10.38;100.00;102098.94;5094830;28;20035;-37
2023/01/05 11:04:06;;;;;;;29.70;7.05;;;;;;;10.37;100.00;102092.69;5094842;28;20032;-37
2023/01/05 11:06:34;;;;;;;34.60;7.50;;;;;;;10.37;100.00;102108.91;5095169;28;20039;-37
2023/01/05 11:09:12;;;;;;;29.42;6.82;;;;;;;10.30;100.00;102086.44;5094533;28;20077;-37
2023/01/05 11:11:38;;;;;;;32.15;6.63;;;;;;;10.39;100.00;102111.41;5094311;28;20020;-37
2023/01/05 11:14:05;;;;;;;25.42;6.63;;;;;;;10.38;100.00;102105.19;5095027;28;20016;-37
2023/01/05 11:16:33;;;;;;;24.35;5.63;;;;;;;10.34;100.00;102098.50;5094377;28;20035;-37
2023/01/05 11:19:06;;;;;;;28.67;6.65;;;;;;;10.35;100.00;102097.47;5095211;28;20024;-37
2023/01/05 11:21:34;;;;;;;31.52;6.90;;;;;;;10.43;100.00;102101.88;5094351;28;20024;-38
2023/01/05 11:24:01;;;;;;;32.63;6.78;;;;;;;10.43;100.00;102091.91;5094563;28;20050;-38
2023/01/05 11:26:31;;;;;;;34.00;7.30;;;;;;;10.45;100.00;102095.25;5094441;28;20024;-38
2023/01/05 11:29:08;;;;;;;34.33;7.80;;;;;;;10.49;100.00;102091.13;5095248;28;20042;-38
2023/01/05 11:31:41;;;;;;;25.40;6.05;;;;;;;10.56;100.00;102080.31;5094365;28;20472;-38
2023/01/05 11:34:32;;;;;;;25.02;6.53;;;;;;;10.63;100.00;102091.16;5094404;28;20048;-38
2023/01/05 11:37:12;;;;;;;29.35;7.32;;;;;;;10.59;100.00;102079.94;5094330;28;20482;-38
2023/01/05 11:39:55;;;;;;;35.47;7.68;;;;;;;10.70;100.00;102083.94;5094204;28;20024;-38
2023/01/05 11:42:24;;;;;;;32.60;6.88;;;;;;;10.70;100.00;102073.09;5094267;28;20024;-38
2023/01/05 11:44:52;;;;;;;33.70;7.43;;;;;;;10.76;100.00;102086.66;5094918;28;20035;-38
2023/01/05 11:47:28;;;;;;;28.25;7.13;;;;;;;10.70;100.00;102073.94;5094006;28;20020;-38
2023/01/05 11:50:23;;;;;;;32.65;8.88;;;;;;;10.75;100.00;102086.88;5094321;28;20119;-38
2023/01/05 11:52:52;;;;;;;31.60;6.20;;;;;;;10.72;100.00;102081.84;5094893;28;20425;-38
2023/01/05 11:55:29;;;;;;;29.55;7.55;;;;;;;10.74;100.00;102079.78;5094038;28;20123;-38
2023/01/05 11:58:13;;;;;;;28.15;6.72;;;;;;;10.76;100.00;102083.13;5094232;28;20460;-38
2023/01/05 12:00:51;;;;;;;23.20;6.50;;;;;;;10.74;100.00;102074.38;5094552;28;20107;-38